Terminal Aerodrome Forecast
Issued by NWS

Home | Current Version | Previous Version | Text Only | Print | Product List | Glossary On
Versions: 1 2 3 4 5 6 7 8 9 10 11 12 13 14 15 16 17 18 19 20 21
000
FTUS43 KDVN 291700
TAFCID
TAF
KCID 291720Z 2918/3018 17007KT P6SM SCT035
     FM292200 19011KT P6SM VCTS BKN080CB
      TEMPO 2922/3002 2SM TSRA BKN035CB
     FM300200 20007KT 3SM -TSRA BR OVC020CB
     FM300500 22005KT 4SM BR VCSH OVC015
     FM301400 28006KT 6SM BR BKN025=

USA.gov is the U.S. government's official web portal to all federal, state and local government web resources and services.